sensor_id;sensor_type;location;lat;lon;timestamp;pressure;altitude;pressure_sealevel;temperature;humidity
41898;BME280;27576;53.366;-1.498;2023-02-04T00:01:21;102026.56;;;8.34;100.00
41898;BME280;27576;53.366;-1.498;2023-02-04T00:03:46;102006.91;;;8.20;100.00
41898;BME280;27576;53.366;-1.498;2023-02-04T00:06:12;102023.59;;;8.27;100.00
41898;BME280;27576;53.366;-1.498;2023-02-04T00:08:37;102035.03;;;8.32;100.00
41898;BME280;27576;53.366;-1.498;2023-02-04T00:11:03;102026.91;;;8.24;100.00
41898;BME280;27576;53.366;-1.498;2023-02-04T00:13:29;102020.81;;;8.22;100.00
41898;BME280;27576;53.366;-1.498;2023-02-04T00:15:54;101994.31;;;8.08;100.00
41898;BME280;27576;53.366;-1.498;2023-02-04T00:18:20;102006.56;;;8.12;100.00
41898;BME280;27576;53.366;-1.498;2023-02-04T00:20:45;102032.22;;;8.27;100.00
41898;BME280;27576;53.366;-1.498;2023-02-04T00:23:11;102016.22;;;8.17;100.00
41898;BME280;27576;53.366;-1.498;2023-02-04T00:25:36;102020.03;;;8.25;100.00
41898;BME280;27576;53.366;-1.498;2023-02-04T00:28:01;102024.28;;;8.23;100.00
41898;BME280;27576;53.366;-1.498;2023-02-04T00:30:28;102023.38;;;8.22;100.00
41898;BME280;27576;53.366;-1.498;2023-02-04T00:32:53;102006.72;;;8.16;100.00
41898;BME280;27576;53.366;-1.498;2023-02-04T00:35:21;101982.50;;;7.96;100.00
41898;BME280;27576;53.366;-1.498;2023-02-04T00:37:46;102014.50;;;8.17;100.00
41898;BME280;27576;53.366;-1.498;2023-02-04T00:40:12;101971.88;;;7.90;100.00
41898;BME280;27576;53.366;-1.498;2023-02-04T00:42:37;102002.94;;;8.09;100.00
41898;BME280;27576;53.366;-1.498;2023-02-04T00:45:03;101983.47;;;7.98;100.00
41898;BME280;27576;53.366;-1.498;2023-02-04T00:47:28;101988.94;;;8.04;100.00
41898;BME280;27576;53.366;-1.498;2023-02-04T00:49:53;102004.06;;;8.14;100.00
41898;BME280;27576;53.366;-1.498;2023-02-04T00:52:19;102003.75;;;8.08;100.00
41898;BME280;27576;53.366;-1.498;2023-02-04T00:54:44;101994.59;;;7.97;100.00
41898;BME280;27576;53.366;-1.498;2023-02-04T00:57:09;101971.88;;;7.90;100.00
41898;BME280;27576;53.366;-1.498;2023-02-04T00:59:35;101980.75;;;7.95;100.00
41898;BME280;27576;53.366;-1.498;2023-02-04T01:02:00;101990.47;;;8.00;100.00
41898;BME280;27576;53.366;-1.498;2023-02-04T01:04:26;101997.66;;;8.06;100.00
41898;BME280;27576;53.366;-1.498;2023-02-04T01:06:52;101985.41;;;8.02;100.00
41898;BME280;27576;53.366;-1.498;2023-02-04T01:09:18;102016.16;;;8.15;100.00
41898;BME280;27576;53.366;-1.498;2023-02-04T01:11:43;101944.31;;;7.71;100.00
41898;BME280;27576;53.366;-1.498;2023-02-04T01:14:09;101996.50;;;8.01;100.00
41898;BME280;27576;53.366;-1.498;2023-02-04T01:16:34;102029.06;;;8.15;100.00
41898;BME280;27576;53.366;-1.498;2023-02-04T01:19:00;102039.81;;;8.24;100.00
41898;BME280;27576;53.366;-1.498;2023-02-04T01:21:25;102047.41;;;8.21;100.00
41898;BME280;27576;53.366;-1.498;2023-02-04T01:23:51;102043.28;;;8.25;100.00
41898;BME280;27576;53.366;-1.498;2023-02-04T01:26:20;101983.22;;;7.93;100.00
41898;BME280;27576;53.366;-1.498;2023-02-04T01:28:45;102037.09;;;8.21;100.00
41898;BME280;27576;53.366;-1.498;2023-02-04T01:31:12;102048.41;;;8.23;100.00
41898;BME280;27576;53.366;-1.498;2023-02-04T01:33:37;102038.41;;;8.13;100.00
41898;BME280;27576;53.366;-1.498;2023-02-04T01:36:03;102003.22;;;7.97;100.00
41898;BME280;27576;53.366;-1.498;2023-02-04T01:38:28;101994.31;;;7.91;100.00
41898;BME280;27576;53.366;-1.498;2023-02-04T01:40:54;102028.69;;;8.07;100.00
41898;BME280;27576;53.366;-1.498;2023-02-04T01:43:22;102024.47;;;8.09;100.00
41898;BME280;27576;53.366;-1.498;2023-02-04T01:45:49;102027.97;;;8.10;100.00
41898;BME280;27576;53.366;-1.498;2023-02-04T01:48:17;102037.63;;;8.14;100.00
41898;BME280;27576;53.366;-1.498;2023-02-04T01:51:01;102019.19;;;8.06;100.00
41898;BME280;27576;53.366;-1.498;2023-02-04T01:53:28;102011.22;;;8.02;100.00
41898;BME280;27576;53.366;-1.498;2023-02-04T01:55:53;102032.09;;;8.06;100.00
41898;BME280;27576;53.366;-1.498;2023-02-04T01:58:19;102020.72;;;8.03;100.00
41898;BME280;27576;53.366;-1.498;2023-02-04T02:00:44;102042.91;;;8.17;100.00
41898;BME280;27576;53.366;-1.498;2023-02-04T02:03:10;102055.09;;;8.20;100.00
41898;BME280;27576;53.366;-1.498;2023-02-04T02:05:52;102035.78;;;8.11;100.00
41898;BME280;27576;53.366;-1.498;2023-02-04T02:08:19;102044.56;;;8.15;100.00
41898;BME280;27576;53.366;-1.498;2023-02-04T02:10:46;102042.19;;;8.20;100.00
41898;BME280;27576;53.366;-1.498;2023-02-04T02:13:16;102053.34;;;8.19;100.00
41898;BME280;27576;53.366;-1.498;2023-02-04T02:15:42;102050.66;;;8.17;100.00
41898;BME280;27576;53.366;-1.498;2023-02-04T02:18:08;102043.06;;;8.20;100.00
41898;BME280;27576;53.366;-1.498;2023-02-04T02:20:35;102031.50;;;8.12;100.00
41898;BME280;27576;53.366;-1.498;2023-02-04T02:23:15;102039.59;;;8.20;100.00
41898;BME280;27576;53.366;-1.498;2023-02-04T02:25:45;102033.41;;;8.16;100.00
41898;BME280;27576;53.366;-1.498;2023-02-04T02:28:14;102030.53;;;8.10;100.00
41898;BME280;27576;53.366;-1.498;2023-02-04T02:30:40;102036.97;;;8.18;100.00
41898;BME280;27576;53.366;-1.498;2023-02-04T02:33:09;102019.25;;;8.08;100.00
41898;BME280;27576;53.366;-1.498;2023-02-04T02:35:35;102003.47;;;8.02;100.00
41898;BME280;27576;53.366;-1.498;2023-02-04T02:38:01;102036.16;;;8.19;100.00
41898;BME280;27576;53.366;-1.498;2023-02-04T02:40:26;102002.34;;;7.97;100.00
41898;BME280;27576;53.366;-1.498;2023-02-04T02:42:52;102010.63;;;8.07;100.00
41898;BME280;27576;53.366;-1.498;2023-02-04T02:45:21;102038.72;;;8.19;100.00
41898;BME280;27576;53.366;-1.498;2023-02-04T02:47:48;101997.34;;;8.00;100.00
41898;BME280;27576;53.366;-1.498;2023-02-04T02:50:15;102032.69;;;8.19;100.00
41898;BME280;27576;53.366;-1.498;2023-02-04T02:52:43;102024.47;;;8.09;100.00
41898;BME280;27576;53.366;-1.498;2023-02-04T02:55:13;102020.50;;;8.16;100.00
41898;BME280;27576;53.366;-1.498;2023-02-04T02:57:40;102029.94;;;8.16;100.00
41898;BME280;27576;53.366;-1.498;2023-02-04T03:00:14;102031.66;;;8.15;100.00
41898;BME280;27576;53.366;-1.498;2023-02-04T03:02:39;102023.75;;;8.12;100.00
41898;BME280;27576;53.366;-1.498;2023-02-04T03:05:05;102031.66;;;8.15;100.00
41898;BME280;27576;53.366;-1.498;2023-02-04T03:07:31;102033.34;;;8.15;100.00
41898;BME280;27576;53.366;-1.498;2023-02-04T03:09:56;102034.78;;;8.09;100.00
41898;BME280;27576;53.366;-1.498;2023-02-04T03:12:23;102006.72;;;7.98;100.00
41898;BME280;27576;53.366;-1.498;2023-02-04T03:14:49;102019.25;;;8.08;100.00
41898;BME280;27576;53.366;-1.498;2023-02-04T03:17:14;102019.19;;;8.06;100.00
41898;BME280;27576;53.366;-1.498;2023-02-04T03:19:40;102009.28;;;7.98;100.00
41898;BME280;27576;53.366;-1.498;2023-02-04T03:22:06;102006.56;;;7.95;100.00
41898;BME280;27576;53.366;-1.498;2023-02-04T03:24:32;102026.94;;;8.06;100.00
41898;BME280;27576;53.366;-1.498;2023-02-04T03:26:58;102014.47;;;7.98;100.00
41898;BME280;27576;53.366;-1.498;2023-02-04T03:29:24;102046.09;;;8.11;100.00
41898;BME280;27576;53.366;-1.498;2023-02-04T03:31:50;102043.50;;;8.11;100.00
41898;BME280;27576;53.366;-1.498;2023-02-04T03:34:15;102030.44;;;8.08;100.00
41898;BME280;27576;53.366;-1.498;2023-02-04T03:36:41;102011.13;;;8.00;100.00
41898;BME280;27576;53.366;-1.498;2023-02-04T03:39:06;102014.47;;;7.98;100.00
41898;BME280;27576;53.366;-1.498;2023-02-04T03:41:31;102027.50;;;8.01;100.00
41898;BME280;27576;53.366;-1.498;2023-02-04T03:43:58;102024.91;;;8.01;100.00
41898;BME280;27576;53.366;-1.498;2023-02-04T03:46:23;102031.28;;;8.07;100.00
41898;BME280;27576;53.366;-1.498;2023-02-04T03:48:50;102011.72;;;7.95;100.00
41898;BME280;27576;53.366;-1.498;2023-02-04T03:51:15;102031.34;;;8.09;100.00
41898;BME280;27576;53.366;-1.498;2023-02-04T03:53:41;102030.44;;;8.08;100.00
41898;BME280;27576;53.366;-1.498;2023-02-04T03:56:06;102005.41;;;7.90;100.00
41898;BME280;27576;53.366;-1.498;2023-02-04T03:58:31;102015.91;;;7.93;100.00
41898;BME280;27576;53.366;-1.498;2023-02-04T04:00:57;102025.56;;;7.97;100.00
41898;BME280;27576;53.366;-1.498;2023-02-04T04:03:22;102012.28;;;7.89;100.00
41898;BME280;27576;53.366;-1.498;2023-02-04T04:05:48;102042.31;;;8.05;100.00
41898;BME280;27576;53.366;-1.498;2023-02-04T04:08:13;102032.75;;;8.02;100.00
41898;BME280;27576;53.366;-1.498;2023-02-04T04:10:38;102007.88;;;7.86;100.00
41898;BME280;27576;53.366;-1.498;2023-02-04T04:13:04;102003.38;;;7.82;100.00
41898;BME280;27576;53.366;-1.498;2023-02-04T04:15:29;102025.56;;;7.97;100.00
41898;BME280;27576;53.366;-1.498;2023-02-04T04:17:54;102038.94;;;8.06;100.00
41898;BME280;27576;53.366;-1.498;2023-02-04T04:20:20;102021.88;;;7.92;100.00
41898;BME280;27576;53.366;-1.498;2023-02-04T04:22:50;102024.53;;;7.93;100.00
41898;BME280;27576;53.366;-1.498;2023-02-04T04:25:15;102046.69;;;8.06;100.00
41898;BME280;27576;53.366;-1.498;2023-02-04T04:27:40;102037.69;;;7.98;100.00
41898;BME280;27576;53.366;-1.498;2023-02-04T04:30:06;102047.47;;;8.05;100.00
41898;BME280;27576;53.366;-1.498;2023-02-04T04:32:31;102049.28;;;8.06;100.00
41898;BME280;27576;53.366;-1.498;2023-02-04T04:34:57;101956.22;;;7.51;100.00
41898;BME280;27576;53.366;-1.498;2023-02-04T04:37:22;102030.56;;;7.94;100.00
41898;BME280;27576;53.366;-1.498;2023-02-04T04:39:48;102031.31;;;7.91;100.00
41898;BME280;27576;53.366;-1.498;2023-02-04T04:42:13;102029.69;;;7.93;100.00
41898;BME280;27576;53.366;-1.498;2023-02-04T04:44:38;102039.28;;;7.96;100.00
41898;BME280;27576;53.366;-1.498;2023-02-04T04:47:04;102009.31;;;7.81;100.00
41898;BME280;27576;53.366;-1.498;2023-02-04T04:49:29;102049.19;;;8.04;100.00
41898;BME280;27576;53.366;-1.498;2023-02-04T04:51:54;102023.50;;;7.90;100.00
41898;BME280;27576;53.366;-1.498;2023-02-04T04:54:20;102032.38;;;7.95;100.00
41898;BME280;27576;53.366;-1.498;2023-02-04T04:56:45;102025.06;;;7.86;100.00
41898;BME280;27576;53.366;-1.498;2023-02-04T04:59:10;102041.88;;;7.96;100.00
41898;BME280;27576;53.366;-1.498;2023-02-04T05:01:36;102023.22;;;7.83;100.00
41898;BME280;27576;53.366;-1.498;2023-02-04T05:04:01;102032.16;;;7.90;100.00
41898;BME280;27576;53.366;-1.498;2023-02-04T05:06:28;102036.41;;;7.90;100.00
41898;BME280;27576;53.366;-1.498;2023-02-04T05:08:53;102067.34;;;8.06;100.00
41898;BME280;27576;53.366;-1.498;2023-02-04T05:11:19;102038.75;;;7.85;100.00
41898;BME280;27576;53.366;-1.498;2023-02-04T05:13:45;102065.56;;;8.05;100.00
41898;BME280;27576;53.366;-1.498;2023-02-04T05:16:11;102053.03;;;7.95;100.00
41898;BME280;27576;53.366;-1.498;2023-02-04T05:18:37;102056.25;;;7.91;100.00
41898;BME280;27576;53.366;-1.498;2023-02-04T05:21:03;102080.25;;;8.06;100.00
41898;BME280;27576;53.366;-1.498;2023-02-04T05:23:29;102088.78;;;8.05;100.00
41898;BME280;27576;53.366;-1.498;2023-02-04T05:25:54;102040.94;;;7.77;100.00
41898;BME280;27576;53.366;-1.498;2023-02-04T05:28:20;102064.00;;;7.91;100.00
41898;BME280;27576;53.366;-1.498;2023-02-04T05:30:46;102068.78;;;8.01;100.00
41898;BME280;27576;53.366;-1.498;2023-02-04T05:33:11;102027.75;;;7.71;100.00
41898;BME280;27576;53.366;-1.498;2023-02-04T05:35:37;102079.06;;;7.99;100.00
41898;BME280;27576;53.366;-1.498;2023-02-04T05:38:02;102079.13;;;8.01;100.00
41898;BME280;27576;53.366;-1.498;2023-02-04T05:40:27;102009.88;;;7.58;100.00
41898;BME280;27576;53.366;-1.498;2023-02-04T05:42:53;102075.59;;;7.99;100.00
41898;BME280;27576;53.366;-1.498;2023-02-04T05:45:18;102079.22;;;8.02;100.00
41898;BME280;27576;53.366;-1.498;2023-02-04T05:47:43;102054.19;;;7.83;100.00
41898;BME280;27576;53.366;-1.498;2023-02-04T05:50:09;102064.78;;;7.90;100.00
41898;BME280;27576;53.366;-1.498;2023-02-04T05:52:35;102093.16;;;8.06;100.00
41898;BME280;27576;53.366;-1.498;2023-02-04T05:55:00;102028.63;;;7.72;100.00
41898;BME280;27576;53.366;-1.498;2023-02-04T05:57:26;102069.28;;;7.94;100.00
41898;BME280;27576;53.366;-1.498;2023-02-04T05:59:51;102069.94;;;7.90;100.00
41898;BME280;27576;53.366;-1.498;2023-02-04T06:02:17;102060.22;;;7.84;100.00
41898;BME280;27576;53.366;-1.498;2023-02-04T06:04:42;102078.66;;;7.92;100.00
41898;BME280;27576;53.366;-1.498;2023-02-04T06:07:07;102087.84;;;8.03;100.00
41898;BME280;27576;53.366;-1.498;2023-02-04T06:09:33;102054.00;;;7.80;100.00
41898;BME280;27576;53.366;-1.498;2023-02-04T06:11:58;102081.41;;;7.95;100.00
41898;BME280;27576;53.366;-1.498;2023-02-04T06:14:24;102054.84;;;7.79;100.00
41898;BME280;27576;53.366;-1.498;2023-02-04T06:16:49;102084.16;;;7.98;100.00
41898;BME280;27576;53.366;-1.498;2023-02-04T06:19:14;102081.25;;;7.92;100.00
41898;BME280;27576;53.366;-1.498;2023-02-04T06:21:40;102036.16;;;7.67;100.00
41898;BME280;27576;53.366;-1.498;2023-02-04T06:24:05;102070.53;;;7.84;100.00
41898;BME280;27576;53.366;-1.498;2023-02-04T06:26:30;102089.44;;;8.01;100.00
41898;BME280;27576;53.366;-1.498;2023-02-04T06:28:56;102075.63;;;7.82;100.00
41898;BME280;27576;53.366;-1.498;2023-02-04T06:31:21;102074.81;;;7.83;100.00
41898;BME280;27576;53.366;-1.498;2023-02-04T06:33:47;102100.44;;;7.97;100.00
41898;BME280;27576;53.366;-1.498;2023-02-04T06:36:13;102080.63;;;7.79;100.00
41898;BME280;27576;53.366;-1.498;2023-02-04T06:38:38;102101.91;;;7.92;100.00
41898;BME280;27576;53.366;-1.498;2023-02-04T06:41:04;102103.81;;;7.96;100.00
41898;BME280;27576;53.366;-1.498;2023-02-04T06:43:29;102115.13;;;7.98;100.00
41898;BME280;27576;53.366;-1.498;2023-02-04T06:45:54;102119.38;;;7.97;100.00
41898;BME280;27576;53.366;-1.498;2023-02-04T06:48:20;102080.31;;;7.73;100.00
41898;BME280;27576;53.366;-1.498;2023-02-04T06:50:45;102123.66;;;7.97;100.00
41898;BME280;27576;53.366;-1.498;2023-02-04T06:53:11;102089.31;;;7.81;100.00
41898;BME280;27576;53.366;-1.498;2023-02-04T06:55:36;102089.25;;;7.80;100.00
41898;BME280;27576;53.366;-1.498;2023-02-04T06:58:01;102090.31;;;7.83;100.00
41898;BME280;27576;53.366;-1.498;2023-02-04T07:00:27;102113.34;;;7.97;100.00
41898;BME280;27576;53.366;-1.498;2023-02-04T07:02:52;102112.47;;;7.96;100.00
41898;BME280;27576;53.366;-1.498;2023-02-04T07:05:18;102060.16;;;7.66;100.00
41898;BME280;27576;53.366;-1.498;2023-02-04T07:07:45;102129.56;;;7.94;100.00
41898;BME280;27576;53.366;-1.498;2023-02-04T07:10:10;102104.91;;;7.83;100.00
41898;BME280;27576;53.366;-1.498;2023-02-04T07:12:35;102123.50;;;7.94;100.00
41898;BME280;27576;53.366;-1.498;2023-02-04T07:15:01;102081.63;;;7.65;100.00
41898;BME280;27576;53.366;-1.498;2023-02-04T07:17:26;102128.44;;;7.89;100.00
41898;BME280;27576;53.366;-1.498;2023-02-04T07:19:51;102102.66;;;7.73;100.00
41898;BME280;27576;53.366;-1.498;2023-02-04T07:22:17;102104.41;;;7.74;100.00
41898;BME280;27576;53.366;-1.498;2023-02-04T07:24:43;102096.44;;;7.69;100.00
41898;BME280;27576;53.366;-1.498;2023-02-04T07:27:08;102136.13;;;7.87;100.00
41898;BME280;27576;53.366;-1.498;2023-02-04T07:29:33;102094.69;;;7.68;100.00
41898;BME280;27576;53.366;-1.498;2023-02-04T07:31:59;102095.09;;;7.59;100.00
41898;BME280;27576;53.366;-1.498;2023-02-04T07:34:24;102141.22;;;7.86;100.00
41898;BME280;27576;53.366;-1.498;2023-02-04T07:36:50;102112.75;;;7.68;100.00
41898;BME280;27576;53.366;-1.498;2023-02-04T07:39:15;102103.31;;;7.69;100.00
41898;BME280;27576;53.366;-1.498;2023-02-04T07:41:41;102108.16;;;7.62;100.00
41898;BME280;27576;53.366;-1.498;2023-02-04T07:44:06;102098.56;;;7.60;100.00
41898;BME280;27576;53.366;-1.498;2023-02-04T07:46:31;102118.72;;;7.67;100.00
41898;BME280;27576;53.366;-1.498;2023-02-04T07:48:57;102149.50;;;7.80;100.00
41898;BME280;27576;53.366;-1.498;2023-02-04T07:51:22;102015.72;;;7.05;100.00
41898;BME280;27576;53.366;-1.498;2023-02-04T07:53:47;102128.06;;;7.65;100.00
41898;BME280;27576;53.366;-1.498;2023-02-04T07:56:13;102146.75;;;7.77;100.00
41898;BME280;27576;53.366;-1.498;2023-02-04T07:58:38;102152.91;;;7.79;100.00
41898;BME280;27576;53.366;-1.498;2023-02-04T08:01:04;102124.44;;;7.61;100.00
41898;BME280;27576;53.366;-1.498;2023-02-04T08:03:29;102153.72;;;7.78;100.00
41898;BME280;27576;53.366;-1.498;2023-02-04T08:05:54;102124.19;;;7.57;100.00
41898;BME280;27576;53.366;-1.498;2023-02-04T08:08:20;102158.78;;;7.77;100.00
41898;BME280;27576;53.366;-1.498;2023-02-04T08:10:46;102130.34;;;7.59;100.00
41898;BME280;27576;53.366;-1.498;2023-02-04T08:13:11;102159.59;;;7.76;100.00
41898;BME280;27576;53.366;-1.498;2023-02-04T08:15:37;102169.09;;;7.77;100.00
41898;BME280;27576;53.366;-1.498;2023-02-04T08:18:03;102132.81;;;7.57;100.00
41898;BME280;27576;53.366;-1.498;2023-02-04T08:20:28;102161.94;;;7.71;100.00
41898;BME280;27576;53.366;-1.498;2023-02-04T08:22:53;102165.63;;;7.76;100.00
41898;BME280;27576;53.366;-1.498;2023-02-04T08:25:19;102154.34;;;7.74;100.00
41898;BME280;27576;53.366;-1.498;2023-02-04T08:27:44;102113.47;;;7.49;100.00
41898;BME280;27576;53.366;-1.498;2023-02-04T08:30:10;102177.72;;;7.77;100.00
41898;BME280;27576;53.366;-1.498;2023-02-04T08:32:35;102170.97;;;7.79;100.00
41898;BME280;27576;53.366;-1.498;2023-02-04T08:35:01;102173.13;;;7.72;100.00
41898;BME280;27576;53.366;-1.498;2023-02-04T08:37:27;102177.00;;;7.80;100.00
41898;BME280;27576;53.366;-1.498;2023-02-04T08:39:52;102176.66;;;7.74;100.00
41898;BME280;27576;53.366;-1.498;2023-02-04T08:42:17;102183.22;;;7.83;100.00
41898;BME280;27576;53.366;-1.498;2023-02-04T08:44:43;102165.47;;;7.73;100.00
41898;BME280;27576;53.366;-1.498;2023-02-04T08:47:09;102190.97;;;7.83;100.00
41898;BME280;27576;53.366;-1.498;2023-02-04T08:49:35;102152.91;;;7.63;100.00
41898;BME280;27576;53.366;-1.498;2023-02-04T08:52:01;102155.78;;;7.69;100.00
41898;BME280;27576;53.366;-1.498;2023-02-04T08:54:28;102183.38;;;7.86;100.00
41898;BME280;27576;53.366;-1.498;2023-02-04T08:56:53;102146.44;;;7.71;100.00
41898;BME280;27576;53.366;-1.498;2023-02-04T08:59:19;102158.69;;;7.75;100.00
41898;BME280;27576;53.366;-1.498;2023-02-04T09:01:46;102126.78;;;7.57;100.00
41898;BME280;27576;53.366;-1.498;2023-02-04T09:04:13;102182.81;;;7.92;100.00
41898;BME280;27576;53.366;-1.498;2023-02-04T09:06:39;102137.72;;;7.69;100.00
41898;BME280;27576;53.366;-1.498;2023-02-04T09:09:04;102174.25;;;7.93;100.00
41898;BME280;27576;53.366;-1.498;2023-02-04T09:11:30;102169.97;;;7.94;100.00
41898;BME280;27576;53.366;-1.498;2023-02-04T09:13:55;102153.94;;;7.83;100.00
41898;BME280;27576;53.366;-1.498;2023-02-04T09:16:21;102155.66;;;7.82;100.00
41898;BME280;27576;53.366;-1.498;2023-02-04T09:18:47;102170.47;;;8.03;100.00
41898;BME280;27576;53.366;-1.498;2023-02-04T09:21:12;102166.75;;;7.98;100.00
41898;BME280;27576;53.366;-1.498;2023-02-04T09:23:37;102115.00;;;7.78;100.00
41898;BME280;27576;53.366;-1.498;2023-02-04T09:26:03;102153.75;;;7.96;100.00
41898;BME280;27576;53.366;-1.498;2023-02-04T09:28:30;102170.91;;;8.12;100.00
41898;BME280;27576;53.366;-1.498;2023-02-04T09:30:56;102138.69;;;7.87;100.00
41898;BME280;27576;53.366;-1.498;2023-02-04T09:33:21;102142.22;;;7.90;100.00
41898;BME280;27576;53.366;-1.498;2023-02-04T09:35:47;102184.81;;;8.14;100.00
41898;BME280;27576;53.366;-1.498;2023-02-04T09:38:13;102172.06;;;8.01;100.00
41898;BME280;27576;53.366;-1.498;2023-02-04T09:40:45;102188.69;;;8.06;100.00
41898;BME280;27576;53.366;-1.498;2023-02-04T09:43:23;102170.28;;;8.00;100.00
41898;BME280;27576;53.366;-1.498;2023-02-04T09:45:50;102190.63;;;8.10;100.00
41898;BME280;27576;53.366;-1.498;2023-02-04T09:48:16;102196.25;;;8.19;100.00
41898;BME280;27576;53.366;-1.498;2023-02-04T09:50:41;102174.09;;;8.06;100.00
41898;BME280;27576;53.366;-1.498;2023-02-04T09:53:13;102153.84;;;7.98;100.00
41898;BME280;27576;53.366;-1.498;2023-02-04T09:55:40;102213.03;;;8.27;100.00
41898;BME280;27576;53.366;-1.498;2023-02-04T09:58:15;102217.53;;;8.31;100.00
41898;BME280;27576;53.366;-1.498;2023-02-04T10:00:51;102218.50;;;8.33;100.00
41898;BME280;27576;53.366;-1.498;2023-02-04T10:03:20;102129.03;;;7.83;100.00
41898;BME280;27576;53.366;-1.498;2023-02-04T10:05:48;102208.31;;;8.36;100.00
41898;BME280;27576;53.366;-1.498;2023-02-04T10:08:16;102208.19;;;8.33;100.00
41898;BME280;27576;53.366;-1.498;2023-02-04T10:10:43;102214.56;;;8.40;100.00
41898;BME280;27576;53.366;-1.498;2023-02-04T10:13:16;102221.53;;;8.41;100.00
41898;BME280;27576;53.366;-1.498;2023-02-04T10:15:43;102217.31;;;8.43;100.00
41898;BME280;27576;53.366;-1.498;2023-02-04T10:18:13;102208.66;;;8.43;100.00
41898;BME280;27576;53.366;-1.498;2023-02-04T10:20:41;102207.03;;;8.45;100.00
41898;BME280;27576;53.366;-1.498;2023-02-04T10:23:09;102205.03;;;8.39;100.00
41898;BME280;27576;53.366;-1.498;2023-02-04T10:25:35;102182.03;;;8.27;100.00
41898;BME280;27576;53.366;-1.498;2023-02-04T10:28:00;102216.81;;;8.50;100.00
41898;BME280;27576;53.366;-1.498;2023-02-04T10:30:36;102211.53;;;8.49;100.00
41898;BME280;27576;53.366;-1.498;2023-02-04T10:33:14;102220.44;;;8.54;100.00
41898;BME280;27576;53.366;-1.498;2023-02-04T10:35:48;102207.19;;;8.48;100.00
41898;BME280;27576;53.366;-1.498;2023-02-04T10:38:14;102213.25;;;8.48;100.00
41898;BME280;27576;53.366;-1.498;2023-02-04T10:40:40;102193.81;;;8.39;100.00
41898;BME280;27576;53.366;-1.498;2023-02-04T10:43:13;102228.41;;;8.58;100.00
41898;BME280;27576;53.366;-1.498;2023-02-04T10:45:46;102217.69;;;8.51;100.00
41898;BME280;27576;53.366;-1.498;2023-02-04T10:48:16;102228.34;;;8.57;100.00
41898;BME280;27576;53.366;-1.498;2023-02-04T10:50:43;102231.50;;;8.51;100.00
41898;BME280;27576;53.366;-1.498;2023-02-04T10:53:10;102226.25;;;8.50;100.00
41898;BME280;27576;53.366;-1.498;2023-02-04T10:55:57;102216.34;;;8.41;100.00
41898;BME280;27576;53.366;-1.498;2023-02-04T10:58:26;102236.88;;;8.56;100.00
41898;BME280;27576;53.366;-1.498;2023-02-04T11:00:52;102196.16;;;8.34;100.00
41898;BME280;27576;53.366;-1.498;2023-02-04T11:03:24;102238.81;;;8.60;100.00
41898;BME280;27576;53.366;-1.498;2023-02-04T11:05:51;102242.22;;;8.59;100.00
41898;BME280;27576;53.366;-1.498;2023-02-04T11:08:18;102238.81;;;8.60;100.00
41898;BME280;27576;53.366;-1.498;2023-02-04T11:10:44;102237.22;;;8.62;100.00
41898;BME280;27576;53.366;-1.498;2023-02-04T11:13:20;102230.41;;;8.64;100.00
41898;BME280;27576;53.366;-1.498;2023-02-04T11:15:48;102230.28;;;8.61;100.00
41898;BME280;27576;53.366;-1.498;2023-02-04T11:20:50;102202.91;;;8.48;100.00
41898;BME280;27576;53.366;-1.498;2023-02-04T11:26:14;102235.00;;;8.70;100.00
41898;BME280;27576;53.366;-1.498;2023-02-04T11:33:48;102225.47;;;8.69;100.00
41898;BME280;27576;53.366;-1.498;2023-02-04T11:36:15;102232.69;;;8.76;100.00
41898;BME280;27576;53.366;-1.498;2023-02-04T11:38:48;102228.44;;;8.76;100.00
41898;BME280;27576;53.366;-1.498;2023-02-04T11:41:26;102246.66;;;8.79;100.00
41898;BME280;27576;53.366;-1.498;2023-02-04T11:43:54;102230.00;;;8.73;100.00
41898;BME280;27576;53.366;-1.498;2023-02-04T11:46:22;102235.38;;;8.77;100.00
41898;BME280;27576;53.366;-1.498;2023-02-04T11:48:55;102232.69;;;8.76;100.00
41898;BME280;27576;53.366;-1.498;2023-02-04T11:51:27;102220.22;;;8.67;100.00
41898;BME280;27576;53.366;-1.498;2023-02-04T11:53:54;102186.09;;;8.56;100.00
41898;BME280;27576;53.366;-1.498;2023-02-04T11:56:20;102213.13;;;8.63;100.00
41898;BME280;27576;53.366;-1.498;2023-02-04T11:58:46;102218.63;;;8.69;100.00
41898;BME280;27576;53.366;-1.498;2023-02-04T12:01:19;102212.19;;;8.61;100.00
41898;BME280;27576;53.366;-1.498;2023-02-04T12:03:59;102193.72;;;8.53;100.00
41898;BME280;27576;53.366;-1.498;2023-02-04T12:06:29;102211.53;;;8.65;100.00
41898;BME280;27576;53.366;-1.498;2023-02-04T12:09:26;102216.59;;;8.64;100.00
41898;BME280;27576;53.366;-1.498;2023-02-04T12:11:53;102215.25;;;8.54;100.00
41898;BME280;27576;53.366;-1.498;2023-02-04T12:14:20;102213.63;;;8.56;100.00
41898;BME280;27576;53.366;-1.498;2023-02-04T12:16:46;102224.13;;;8.59;100.00
41898;BME280;27576;53.366;-1.498;2023-02-04T12:19:12;102198.34;;;8.43;100.00
41898;BME280;27576;53.366;-1.498;2023-02-04T12:21:39;102208.72;;;8.44;100.00
41898;BME280;27576;53.366;-1.498;2023-02-04T12:24:04;102202.41;;;8.38;100.00
41898;BME280;27576;53.366;-1.498;2023-02-04T12:26:30;102210.44;;;8.44;100.00
41898;BME280;27576;53.366;-1.498;2023-02-04T12:28:55;102231.06;;;8.60;100.00
41898;BME280;27576;53.366;-1.498;2023-02-04T12:31:21;102184.44;;;8.41;100.00
41898;BME280;27576;53.366;-1.498;2023-02-04T12:33:47;102200.41;;;8.50;100.00
41898;BME280;27576;53.366;-1.498;2023-02-04T12:36:12;102182.41;;;8.51;100.00
41898;BME280;27576;53.366;-1.498;2023-02-04T12:38:37;102195.75;;;8.60;100.00
41898;BME280;27576;53.366;-1.498;2023-02-04T12:41:03;102213.72;;;8.75;100.00
41898;BME280;27576;53.366;-1.498;2023-02-04T12:43:28;102174.50;;;8.48;100.00
41898;BME280;27576;53.366;-1.498;2023-02-04T12:45:54;102207.63;;;8.73;100.00
41898;BME280;27576;53.366;-1.498;2023-02-04T12:48:19;102197.13;;;8.70;100.00